Time;durP1;ratioP1;P1;durP2;ratioP2;P2;SDS_P1;SDS_P2;PMS_P1;PMS_P2;Temp;Humidity;BMP_temperature;BMP_pressure;BME280_temperature;BME280_humidity;BME280_pressure;Samples;Min_cycle;Max_cycle;Signal;HPM_P1;HPM_P2
2023/03/10 00:00:15;;;;;;;2.03;0.30;;;19.20;60.00;;;;;;5067873;28;20063;-87
2023/03/10 00:02:48;;;;;;;1.30;0.60;;;19.20;60.00;;;;;;5061207;28;20044;-92
2023/03/10 00:05:16;;;;;;;1.58;0.40;;;19.20;59.90;;;;;;5068170;28;20083;-92
2023/03/10 00:07:43;;;;;;;1.38;0.30;;;19.20;59.80;;;;;;5070483;28;20512;-91
2023/03/10 00:10:11;;;;;;;1.33;0.40;;;19.20;59.80;;;;;;5059996;28;20052;-91
2023/03/10 00:12:40;;;;;;;0.80;0.20;;;19.30;59.80;;;;;;5068078;28;20053;-89
2023/03/10 00:15:09;;;;;;;1.05;0.30;;;19.30;59.70;;;;;;5069042;28;20051;-92
2023/03/10 00:17:36;;;;;;;1.85;0.50;;;19.40;59.70;;;;;;5071747;28;20272;-88
2023/03/10 00:20:06;;;;;;;0.88;0.30;;;19.40;59.60;;;;;;5059752;28;20052;-89
2023/03/10 00:22:33;;;;;;;1.55;0.30;;;19.40;59.50;;;;;;5058051;28;20107;-88
2023/03/10 00:25:00;;;;;;;1.00;0.30;;;19.50;59.40;;;;;;5067673;28;20049;-91
2023/03/10 00:27:27;;;;;;;1.05;0.40;;;19.60;59.40;;;;;;5055008;28;20050;-92
2023/03/10 00:29:56;;;;;;;1.05;0.30;;;19.60;59.30;;;;;;5070214;28;20051;-90
2023/03/10 00:32:23;;;;;;;0.93;0.20;;;19.70;59.30;;;;;;5051409;28;20421;-90
2023/03/10 00:34:50;;;;;;;0.90;0.35;;;19.80;59.20;;;;;;5054093;28;20040;-89
2023/03/10 00:37:17;;;;;;;1.17;0.40;;;19.80;59.10;;;;;;5060188;28;20149;-89
2023/03/10 00:39:44;;;;;;;1.42;0.50;;;19.90;59.10;;;;;;5062003;28;20414;-91
2023/03/10 00:42:11;;;;;;;1.00;0.40;;;19.90;59.00;;;;;;5064279;28;20488;-89
2023/03/10 00:44:38;;;;;;;1.10;0.40;;;19.90;59.00;;;;;;5061447;28;20056;-91
2023/03/10 00:47:07;;;;;;;1.55;0.43;;;19.90;59.00;;;;;;5068288;28;20036;-93
2023/03/10 00:49:34;;;;;;;1.15;0.38;;;19.80;58.90;;;;;;5068404;28;20060;-93
2023/03/10 00:52:01;;;;;;;1.02;0.47;;;19.90;59.00;;;;;;5062416;28;20498;-93
2023/03/10 00:54:28;;;;;;;1.80;0.60;;;19.90;59.00;;;;;;5059419;28;20051;-93
2023/03/10 00:56:55;;;;;;;1.40;0.57;;;19.80;59.00;;;;;;5054233;28;20056;-92
2023/03/10 00:59:22;;;;;;;1.92;0.30;;;19.80;59.00;;;;;;5064507;28;20059;-93
2023/03/10 01:01:48;;;;;;;3.05;0.52;;;19.80;59.10;;;;;;5055244;28;20048;-94
2023/03/10 01:04:18;;;;;;;1.25;0.32;;;19.70;59.10;;;;;;5056779;28;20044;-93
2023/03/10 01:06:46;;;;;;;1.25;0.40;;;19.70;59.10;;;;;;5063885;28;20045;-93
2023/03/10 01:09:13;;;;;;;1.67;0.55;;;19.70;59.20;;;;;;5058557;28;20123;-89
2023/03/10 01:11:40;;;;;;;1.10;0.30;;;19.70;59.30;;;;;;5057584;28;20061;-92
2023/03/10 01:14:11;;;;;;;1.13;0.40;;;19.60;59.30;;;;;;5052765;28;20056;-93
2023/03/10 01:16:38;;;;;;;1.60;0.32;;;19.60;59.40;;;;;;5063582;28;20060;-89
2023/03/10 01:19:05;;;;;;;1.15;0.47;;;19.50;59.40;;;;;;5065765;28;20055;-93
2023/03/10 01:21:36;;;;;;;1.30;0.60;;;19.50;59.40;;;;;;5062302;28;20064;-92
2023/03/10 01:24:04;;;;;;;1.10;0.47;;;19.50;59.40;;;;;;5050202;28;20060;-94
2023/03/10 01:26:31;;;;;;;1.35;0.30;;;19.50;59.50;;;;;;5061357;28;20053;-93
2023/03/10 01:28:58;;;;;;;1.30;0.25;;;19.40;59.60;;;;;;5062680;28;20048;-93
2023/03/10 01:31:25;;;;;;;0.85;0.30;;;19.40;59.70;;;;;;5056328;28;20051;-89
2023/03/10 01:33:52;;;;;;;2.08;0.50;;;19.40;59.70;;;;;;5060945;28;20585;-92
2023/03/10 01:36:21;;;;;;;1.00;0.30;;;19.30;59.70;;;;;;5063937;28;20404;-91
2023/03/10 01:38:50;;;;;;;1.20;0.50;;;19.30;59.80;;;;;;5054807;28;20048;-91
2023/03/10 01:41:17;;;;;;;1.15;0.40;;;19.20;59.80;;;;;;5069557;28;20056;-92
2023/03/10 01:43:45;;;;;;;1.33;0.40;;;19.20;59.80;;;;;;5064407;28;20128;-91
2023/03/10 01:46:39;;;;;;;1.08;0.43;;;19.20;59.80;;;;;;5056031;28;20060;-91
2023/03/10 01:49:13;;;;;;;1.30;0.30;;;19.20;59.80;;;;;;5062228;28;20132;-89
2023/03/10 01:51:45;;;;;;;1.00;0.40;;;19.20;59.80;;;;;;5063272;28;20044;-91
2023/03/10 01:54:16;;;;;;;1.30;0.43;;;19.20;59.80;;;;;;5053643;28;20052;-88
2023/03/10 01:56:44;;;;;;;2.65;0.40;;;19.20;59.80;;;;;;5045716;28;20045;-91
2023/03/10 01:59:12;;;;;;;1.17;0.38;;;19.20;59.80;;;;;;5056438;28;20481;-91
2023/03/10 02:01:39;;;;;;;1.17;0.43;;;19.30;59.80;;;;;;5022485;28;142773;-90
2023/03/10 02:04:10;;;;;;;1.42;0.50;;;19.30;59.70;;;;;;5055400;28;20078;-91
2023/03/10 02:06:40;;;;;;;1.40;0.30;;;19.30;59.60;;;;;;5070374;28;20440;-90
2023/03/10 02:09:09;;;;;;;1.58;0.60;;;19.30;59.50;;;;;;5063591;28;20041;-91
2023/03/10 02:11:38;;;;;;;1.83;0.50;;;19.40;59.50;;;;;;5060730;28;20048;-92
2023/03/10 02:14:06;;;;;;;1.40;0.55;;;19.40;59.60;;;;;;5065935;28;20063;-92
2023/03/10 02:16:34;;;;;;;0.93;0.28;;;19.30;59.50;;;;;;5067481;28;20051;-89
2023/03/10 02:19:01;;;;;;;1.17;0.32;;;19.30;59.50;;;;;;5070790;28;20048;-91
2023/03/10 02:21:39;;;;;;;1.02;0.70;;;19.40;59.40;;;;;;5069096;28;20052;-90
2023/03/10 02:24:18;;;;;;;1.98;0.60;;;19.40;60.10;;;;;;5068386;28;20091;-89
2023/03/10 02:26:52;;;;;;;1.30;0.30;;;19.40;59.30;;;;;;5068796;28;20049;-91
2023/03/10 02:29:27;;;;;;;1.10;0.50;;;19.50;59.30;;;;;;5069080;28;20051;-91
2023/03/10 02:31:55;;;;;;;1.02;0.40;;;19.60;59.20;;;;;;5067131;28;20047;-91
2023/03/10 02:34:23;;;;;;;1.20;0.45;;;19.60;59.10;;;;;;5068577;28;20863;-90
2023/03/10 02:36:50;;;;;;;0.77;0.22;;;19.70;59.00;;;;;;5068036;28;20056;-91
2023/03/10 02:39:17;;;;;;;1.10;0.30;;;19.70;58.80;;;;;;5069088;28;20048;-90
2023/03/10 02:41:45;;;;;;;0.90;0.25;;;19.80;58.70;;;;;;5069357;28;20494;-90
2023/03/10 02:44:14;;;;;;;1.23;0.50;;;19.80;58.60;;;;;;5068370;28;20060;-91
2023/03/10 02:46:42;;;;;;;1.05;0.30;;;19.80;58.50;;;;;;5068348;28;20097;-89
2023/03/10 02:49:10;;;;;;;1.00;0.30;;;19.90;58.50;;;;;;5068420;28;20052;-90
2023/03/10 02:51:40;;;;;;;1.10;0.45;;;19.90;58.50;;;;;;5068236;28;20061;-89
2023/03/10 02:54:08;;;;;;;0.98;0.38;;;19.80;58.50;;;;;;5069921;28;20048;-89
2023/03/10 02:56:36;;;;;;;1.10;0.25;;;19.90;58.50;;;;;;5069531;28;20133;-89
2023/03/10 02:59:04;;;;;;;1.52;0.68;;;19.80;58.50;;;;;;5069277;28;20047;-90
2023/03/10 03:01:31;;;;;;;1.10;0.47;;;19.80;59.30;;;;;;5068305;28;20490;-91
2023/03/10 03:04:00;;;;;;;0.82;0.32;;;19.80;58.60;;;;;;5069896;28;20067;-90
2023/03/10 03:06:28;;;;;;;1.23;0.32;;;19.70;58.60;;;;;;5068879;28;20062;-90
2023/03/10 03:08:55;;;;;;;1.00;0.20;;;19.70;58.70;;;;;;5067046;28;20064;-90
2023/03/10 03:11:22;;;;;;;1.27;0.43;;;19.70;58.80;;;;;;5066943;28;20731;-90
2023/03/10 03:13:48;;;;;;;1.27;0.40;;;19.60;58.80;;;;;;5069519;28;20501;-90
2023/03/10 03:16:16;;;;;;;0.98;0.30;;;19.60;58.90;;;;;;5064188;28;20045;-91
2023/03/10 03:18:42;;;;;;;1.05;0.30;;;19.60;58.90;;;;;;5058861;28;20063;-90
2023/03/10 03:21:14;;;;;;;2.38;0.73;;;19.50;58.80;;;;;;5070079;28;20456;-90
2023/03/10 03:23:41;;;;;;;1.50;0.50;;;19.50;58.90;;;;;;5067907;28;20099;-91
2023/03/10 03:26:14;;;;;;;1.40;0.43;;;19.50;59.00;;;;;;5069237;28;20075;-89
2023/03/10 03:28:41;;;;;;;1.10;0.43;;;19.40;59.00;;;;;;5055167;28;20060;-90
2023/03/10 03:31:14;;;;;;;1.30;0.50;;;19.40;59.10;;;;;;5049668;28;20072;-91
2023/03/10 03:33:41;;;;;;;1.67;0.40;;;19.30;59.10;;;;;;5060098;28;20486;-91
2023/03/10 03:36:08;;;;;;;1.42;0.52;;;19.30;59.20;;;;;;5068724;28;20052;-90
2023/03/10 03:38:37;;;;;;;0.85;0.30;;;19.30;59.30;;;;;;5055464;28;20048;-90
2023/03/10 03:41:04;;;;;;;1.00;0.20;;;19.20;59.20;;;;;;5049532;28;20525;-90
2023/03/10 03:43:31;;;;;;;1.00;0.35;;;19.20;59.30;;;;;;5056764;28;20049;-90
2023/03/10 03:45:58;;;;;;;1.17;0.30;;;19.20;59.30;;;;;;5069466;28;20045;-89
2023/03/10 03:48:25;;;;;;;1.00;0.30;;;19.10;59.20;;;;;;5066299;28;20598;-91
2023/03/10 03:50:52;;;;;;;1.08;0.47;;;19.10;59.30;;;;;;5067915;28;20059;-91
2023/03/10 03:53:19;;;;;;;1.27;0.52;;;19.10;59.20;;;;;;5068955;28;20456;-91
2023/03/10 03:55:49;;;;;;;1.05;0.30;;;19.10;59.30;;;;;;5067889;28;20091;-89
2023/03/10 03:58:16;;;;;;;;;;;19.10;59.30;;;;;;5068523;28;20537;-90
2023/03/10 04:00:43;;;;;;;1.00;0.20;;;19.20;59.20;;;;;;5068318;28;20543;-90
2023/03/10 04:03:10;;;;;;;1.08;0.30;;;19.20;59.10;;;;;;5058645;28;20048;-91
2023/03/10 04:05:37;;;;;;;1.90;0.30;;;19.30;59.20;;;;;;5047584;28;20460;-89
2023/03/10 04:08:04;;;;;;;1.20;0.50;;;19.30;59.10;;;;;;5048159;28;20423;-89
2023/03/10 04:10:31;;;;;;;1.10;0.30;;;19.30;59.00;;;;;;5051499;28;20162;-90
2023/03/10 04:13:00;;;;;;;1.10;0.40;;;19.30;58.90;;;;;;5068212;28;20154;-91
2023/03/10 04:15:27;;;;;;;1.30;0.45;;;19.40;58.80;;;;;;5067398;28;20045;-91
2023/03/10 04:17:56;;;;;;;0.90;0.40;;;19.40;58.80;;;;;;5068607;28;20048;-90
2023/03/10 04:20:23;;;;;;;1.17;0.45;;;19.40;58.80;;;;;;5068240;28;20049;-91
2023/03/10 04:22:51;;;;;;;0.90;0.28;;;19.40;58.80;;;;;;5066421;28;20056;-90
2023/03/10 04:25:18;;;;;;;1.33;0.50;;;19.40;58.80;;;;;;5067581;28;20083;-90
2023/03/10 04:27:45;;;;;;;1.25;0.60;;;19.40;58.80;;;;;;5067208;28;20060;-90
2023/03/10 04:30:14;;;;;;;1.20;0.43;;;19.50;58.70;;;;;;5067741;28;20051;-89
2023/03/10 04:32:41;;;;;;;1.15;0.38;;;19.50;58.70;;;;;;5065890;28;20049;-91
2023/03/10 04:35:11;;;;;;;0.90;0.40;;;19.50;58.60;;;;;;5066882;28;20048;-89
2023/03/10 04:37:38;;;;;;;1.00;0.30;;;19.60;58.50;;;;;;5067818;28;20521;-90
2023/03/10 04:40:08;;;;;;;1.10;0.30;;;19.60;58.40;;;;;;5066918;28;20055;-90
2023/03/10 04:42:35;;;;;;;1.25;0.40;;;19.70;58.20;;;;;;5061547;28;20044;-87
2023/03/10 04:45:02;;;;;;;0.88;0.30;;;19.80;58.20;;;;;;5059713;28;20055;-91
2023/03/10 04:47:31;;;;;;;1.15;0.40;;;19.90;58.10;;;;;;5059785;28;20060;-90
2023/03/10 04:49:58;;;;;;;1.15;0.43;;;19.90;58.00;;;;;;5069406;28;20049;-89
2023/03/10 04:52:25;;;;;;;0.90;0.30;;;19.90;58.00;;;;;;5065986;28;20067;-89
2023/03/10 04:54:51;;;;;;;1.15;0.43;;;19.90;57.90;;;;;;5069268;28;20060;-89
2023/03/10 04:57:19;;;;;;;0.90;0.32;;;19.90;57.90;;;;;;5068929;28;20050;-90
2023/03/10 04:59:46;;;;;;;1.20;0.43;;;19.90;58.00;;;;;;5069630;28;20072;-89
2023/03/10 05:02:12;;;;;;;1.33;0.50;;;19.80;58.00;;;;;;5064778;28;20063;-90
2023/03/10 05:04:41;;;;;;;0.90;0.28;;;19.80;58.00;;;;;;5067239;28;20056;-89
2023/03/10 05:07:08;;;;;;;1.08;0.50;;;19.70;58.00;;;;;;5067130;28;20045;-89
2023/03/10 05:09:36;;;;;;;0.77;0.22;;;19.70;58.10;;;;;;5066195;28;20045;-90
2023/03/10 05:12:05;;;;;;;1.30;0.50;;;19.70;58.20;;;;;;5063871;28;20096;-90
2023/03/10 05:14:32;;;;;;;1.30;0.50;;;19.70;58.20;;;;;;5067612;28;20058;-90
2023/03/10 05:16:59;;;;;;;1.40;0.70;;;19.60;58.20;;;;;;5067736;28;20048;-89
2023/03/10 05:19:27;;;;;;;1.30;0.45;;;19.60;58.30;;;;;;5063583;28;20099;-90
2023/03/10 05:21:55;;;;;;;1.20;0.35;;;19.50;58.30;;;;;;5054829;28;20056;-88
2023/03/10 05:24:22;;;;;;;1.33;0.30;;;19.50;58.40;;;;;;5068167;28;20056;-89
2023/03/10 05:26:49;;;;;;;1.13;0.40;;;19.50;58.50;;;;;;5070802;28;20048;-89
2023/03/10 05:29:17;;;;;;;1.40;0.50;;;19.40;58.40;;;;;;5071078;28;20048;-90
2023/03/10 05:31:43;;;;;;;1.40;0.57;;;19.40;58.50;;;;;;5071409;28;20064;-89
2023/03/10 05:34:10;;;;;;;1.40;0.52;;;19.40;58.60;;;;;;5072389;28;20041;-90
2023/03/10 05:36:37;;;;;;;1.50;0.63;;;19.30;58.60;;;;;;5071860;28;20048;-90
2023/03/10 05:39:08;;;;;;;1.15;0.32;;;19.30;58.70;;;;;;5070612;28;20052;-91
2023/03/10 05:41:36;;;;;;;1.48;0.50;;;19.30;58.70;;;;;;5071518;28;20094;-90
2023/03/10 05:44:03;;;;;;;1.40;0.40;;;19.20;58.60;;;;;;5070480;28;20044;-90
2023/03/10 05:46:30;;;;;;;1.67;0.50;;;19.20;58.70;;;;;;5070609;28;20052;-90
2023/03/10 05:48:57;;;;;;;1.20;0.45;;;19.20;58.70;;;;;;5067363;28;20060;-90
2023/03/10 05:51:24;;;;;;;1.25;0.50;;;19.10;58.80;;;;;;5071801;28;20060;-91
2023/03/10 05:53:51;;;;;;;1.27;0.45;;;19.10;58.80;;;;;;5070254;28;20517;-90
2023/03/10 05:56:21;;;;;;;1.00;0.40;;;19.10;58.80;;;;;;5065816;28;20052;-90
2023/03/10 05:58:49;;;;;;;1.10;0.40;;;19.10;59.50;;;;;;5066187;28;20048;-90
2023/03/10 06:01:17;;;;;;;1.80;0.30;;;19.10;58.80;;;;;;5063230;28;20055;-91
2023/03/10 06:03:44;;;;;;;0.88;0.28;;;19.20;58.80;;;;;;5070137;28;20056;-92
2023/03/10 06:06:12;;;;;;;1.10;0.30;;;19.20;58.80;;;;;;5051959;28;20060;-91
2023/03/10 06:08:39;;;;;;;1.08;0.43;;;19.20;58.70;;;;;;5050582;28;20071;-91
2023/03/10 06:11:06;;;;;;;1.25;0.45;;;19.20;58.60;;;;;;5052232;28;20061;-91
2023/03/10 06:13:34;;;;;;;1.17;0.52;;;19.30;58.60;;;;;;5049642;28;20103;-90
2023/03/10 06:16:04;;;;;;;1.20;0.30;;;19.30;58.50;;;;;;5064707;28;20052;-89
2023/03/10 06:18:31;;;;;;;1.20;0.50;;;19.30;58.40;;;;;;5069403;28;20060;-90
2023/03/10 06:20:58;;;;;;;1.10;0.40;;;19.40;58.40;;;;;;5071166;28;20076;-89
2023/03/10 06:23:26;;;;;;;1.10;0.50;;;19.40;58.30;;;;;;5070011;28;20064;-90
2023/03/10 06:25:57;;;;;;;1.13;0.47;;;19.50;58.30;;;;;;5069461;28;20056;-90
2023/03/10 06:28:24;;;;;;;0.93;0.43;;;19.50;58.30;;;;;;5070159;28;20060;-90
2023/03/10 06:30:55;;;;;;;1.10;0.20;;;19.40;58.20;;;;;;5071168;28;20048;-91
2023/03/10 06:33:23;;;;;;;1.65;0.43;;;19.40;58.20;;;;;;5071029;28;20091;-91
2023/03/10 06:35:50;;;;;;;1.20;0.30;;;19.50;58.20;;;;;;5069646;28;20131;-91
2023/03/10 06:38:17;;;;;;;1.02;0.40;;;19.50;58.10;;;;;;5069078;28;20063;-88
2023/03/10 06:40:44;;;;;;;1.55;0.63;;;19.60;58.10;;;;;;5068918;28;20399;-90
2023/03/10 06:43:11;;;;;;;1.52;0.40;;;19.60;58.00;;;;;;5068248;28;20059;-90
2023/03/10 06:45:40;;;;;;;1.10;0.30;;;19.70;57.90;;;;;;5068550;28;20086;-91
2023/03/10 06:48:08;;;;;;;1.08;0.30;;;19.80;57.80;;;;;;5068969;28;20055;-89
2023/03/10 06:50:35;;;;;;;1.13;0.43;;;19.80;57.70;;;;;;5068822;28;20059;-90
2023/03/10 06:53:02;;;;;;;1.02;0.30;;;19.80;57.60;;;;;;5069913;28;20056;-90
2023/03/10 06:55:29;;;;;;;1.17;0.40;;;19.90;57.60;;;;;;5068894;28;20053;-90
2023/03/10 06:57:56;;;;;;;1.38;0.50;;;19.90;57.60;;;;;;5069015;28;20049;-91
2023/03/10 07:00:23;;;;;;;1.10;0.40;;;19.90;57.60;;;;;;5067627;28;20045;-91
2023/03/10 07:02:50;;;;;;;1.30;0.40;;;19.80;57.60;;;;;;5069116;28;20059;-90
2023/03/10 07:05:21;;;;;;;1.20;0.50;;;19.80;57.60;;;;;;5058043;28;20053;-91
2023/03/10 07:07:49;;;;;;;1.10;0.40;;;19.80;57.60;;;;;;5060920;28;20220;-89
2023/03/10 07:10:16;;;;;;;1.05;0.38;;;19.80;57.70;;;;;;5056997;28;20456;-91
2023/03/10 07:12:44;;;;;;;1.13;0.32;;;19.70;57.70;;;;;;5063790;28;20056;-90
2023/03/10 07:15:12;;;;;;;1.27;0.60;;;19.70;57.80;;;;;;5070036;28;20059;-88
2023/03/10 07:17:39;;;;;;;1.23;0.57;;;19.70;57.90;;;;;;5068706;28;20056;-88
2023/03/10 07:20:07;;;;;;;1.40;0.38;;;19.60;57.90;;;;;;5068950;28;20060;-90
2023/03/10 07:22:35;;;;;;;1.35;0.40;;;19.60;57.90;;;;;;5068072;28;20052;-89
2023/03/10 07:25:03;;;;;;;1.00;0.30;;;19.60;58.00;;;;;;5070139;28;20044;-88
2023/03/10 07:27:30;;;;;;;1.33;0.43;;;19.50;58.10;;;;;;5068770;28;20132;-90
2023/03/10 07:29:57;;;;;;;1.33;0.50;;;19.50;58.10;;;;;;5054954;28;20508;-90
2023/03/10 07:32:24;;;;;;;0.90;0.28;;;19.50;58.10;;;;;;5063002;28;20052;-90
2023/03/10 07:34:51;;;;;;;1.52;0.60;;;19.40;58.10;;;;;;5052745;28;20049;-90
2023/03/10 07:37:18;;;;;;;1.13;0.40;;;19.40;58.20;;;;;;5053763;28;20060;-89
2023/03/10 07:39:47;;;;;;;1.13;0.50;;;19.30;58.20;;;;;;5067124;28;20060;-89
2023/03/10 07:42:14;;;;;;;0.80;0.20;;;19.30;58.20;;;;;;5069019;28;20052;-89
2023/03/10 07:44:40;;;;;;;1.23;0.35;;;19.30;58.30;;;;;;5067089;28;20052;-88
2023/03/10 07:47:07;;;;;;;1.25;0.43;;;19.20;58.30;;;;;;5067834;28;20052;-88
2023/03/10 07:49:34;;;;;;;1.02;0.30;;;19.20;58.40;;;;;;5063593;28;20060;-89
2023/03/10 07:52:01;;;;;;;1.30;0.40;;;19.20;58.40;;;;;;5048083;28;20682;-89
2023/03/10 07:54:28;;;;;;;1.27;0.50;;;19.20;58.50;;;;;;5054583;28;20049;-91
2023/03/10 07:56:57;;;;;;;1.45;0.52;;;19.10;58.50;;;;;;5067740;28;20061;-90
2023/03/10 07:59:24;;;;;;;1.42;0.40;;;19.10;58.40;;;;;;5069354;28;20048;-89
2023/03/10 08:01:51;;;;;;;1.20;0.35;;;19.10;58.40;;;;;;5067405;28;20052;-90
2023/03/10 08:04:18;;;;;;;1.10;0.30;;;19.10;58.40;;;;;;5068867;28;20088;-90
2023/03/10 08:06:46;;;;;;;1.23;0.40;;;19.20;58.50;;;;;;5069378;28;20765;-89
2023/03/10 08:09:13;;;;;;;1.20;0.40;;;19.20;59.10;;;;;;5071172;28;20119;-90
2023/03/10 08:11:40;;;;;;;1.20;0.40;;;19.20;58.40;;;;;;5065877;28;20501;-89
2023/03/10 08:14:08;;;;;;;1.30;0.40;;;19.30;58.30;;;;;;5069043;28;20506;-90
2023/03/10 08:16:35;;;;;;;1.42;0.50;;;19.30;58.20;;;;;;5064709;28;20053;-90
2023/03/10 08:19:02;;;;;;;0.90;0.20;;;19.30;58.20;;;;;;5049396;28;20048;-91
2023/03/10 08:21:29;;;;;;;1.35;0.45;;;19.30;58.20;;;;;;5050061;28;20052;-89
2023/03/10 08:23:56;;;;;;;1.08;0.40;;;19.30;58.10;;;;;;5047646;28;20110;-90
2023/03/10 08:26:23;;;;;;;1.23;0.45;;;19.30;58.10;;;;;;5049892;28;20057;-91
2023/03/10 08:28:50;;;;;;;1.20;0.40;;;19.30;58.10;;;;;;5049924;28;20049;-91
2023/03/10 08:31:20;;;;;;;1.40;0.88;;;19.40;58.10;;;;;;5050308;28;20060;-92
2023/03/10 08:33:48;;;;;;;1.15;0.30;;;19.40;58.00;;;;;;5047855;28;20048;-90
2023/03/10 08:36:17;;;;;;;1.38;0.47;;;19.50;57.90;;;;;;5066939;28;20048;-91
2023/03/10 08:38:46;;;;;;;1.00;0.40;;;19.50;57.80;;;;;;5069158;28;20453;-91
2023/03/10 08:41:15;;;;;;;1.10;0.28;;;19.60;57.80;;;;;;5071531;28;20055;-89
2023/03/10 08:47:17;;;;;;;1.63;0.93;;;19.70;57.70;;;;;;5122994;27;1297241;-63
2023/03/10 08:49:44;;;;;;;1.23;0.65;;;19.80;57.40;;;;;;5145187;27;20047;-63
2023/03/10 08:52:11;;;;;;;1.60;1.00;;;19.80;57.30;;;;;;5108309;28;20050;-62
2023/03/10 08:54:38;;;;;;;1.55;0.98;;;19.90;57.20;;;;;;5098462;28;20404;-63
2023/03/10 08:57:05;;;;;;;1.58;0.85;;;19.90;57.10;;;;;;5105556;28;20494;-65
2023/03/10 08:59:32;;;;;;;1.60;1.05;;;20.00;57.20;;;;;;5100731;28;20050;-66
2023/03/10 09:01:59;;;;;;;1.20;0.80;;;19.90;57.20;;;;;;5115866;28;20043;-71
2023/03/10 09:04:27;;;;;;;1.73;0.98;;;19.90;57.20;;;;;;5102840;28;20047;-67
2023/03/10 09:06:54;;;;;;;2.63;0.80;;;19.90;57.20;;;;;;5123814;28;20052;-71
2023/03/10 09:09:21;;;;;;;1.33;0.50;;;19.90;57.30;;;;;;5126538;28;20391;-73
2023/03/10 09:11:48;;;;;;;1.67;0.90;;;19.90;57.40;;;;;;5124411;28;20059;-68
2023/03/10 09:14:16;;;;;;;1.40;0.60;;;19.90;57.40;;;;;;5125513;28;20312;-69
2023/03/10 09:16:43;;;;;;;1.30;0.43;;;19.80;57.40;;;;;;5125649;28;20068;-65
2023/03/10 09:19:11;;;;;;;1.55;0.90;;;19.90;57.60;;;;;;5125356;28;20059;-68
2023/03/10 09:21:41;;;;;;;1.30;0.90;;;19.80;57.60;;;;;;5125658;28;20046;-68
2023/03/10 09:24:08;;;;;;;1.33;0.43;;;19.80;57.70;;;;;;5120985;28;20054;-67
2023/03/10 09:26:35;;;;;;;1.85;0.93;;;19.80;57.80;;;;;;5090540;28;20058;-63
2023/03/10 09:29:03;;;;;;;1.80;1.40;;;19.70;57.90;;;;;;5101515;28;20054;-68
2023/03/10 09:31:33;;;;;;;1.55;1.27;;;19.70;58.00;;;;;;5121617;28;20054;-65
2023/03/10 09:34:00;;;;;;;1.35;0.30;;;19.70;58.00;;;;;;5106244;28;20494;-62
2023/03/10 09:36:28;;;;;;;1.48;0.88;;;19.60;58.10;;;;;;5122397;28;20043;-66
2023/03/10 09:38:57;;;;;;;1.40;0.90;;;19.60;58.20;;;;;;5124256;28;20152;-65
2023/03/10 09:41:52;;;;;;;1.00;0.30;;;19.60;58.30;;;;;;5102776;28;20429;-61
2023/03/10 09:44:26;;;;;;;1.05;0.45;;;19.50;58.30;;;;;;5119838;28;20376;-65
2023/03/10 09:47:06;;;;;;;3.22;0.88;;;19.50;59.10;;;;;;5119986;28;20140;-65
2023/03/10 09:49:37;;;;;;;1.73;0.88;;;19.50;58.50;;;;;;5120477;28;20039;-66
2023/03/10 09:52:17;;;;;;;2.33;1.35;;;19.40;58.60;;;;;;5122607;28;20495;-66
2023/03/10 09:54:55;;;;;;;5.47;1.02;;;19.40;58.80;;;;;;5098915;28;20079;-62
2023/03/10 09:57:22;;;;;;;1.35;0.77;;;19.40;58.80;;;;;;5097343;28;20484;-66
2023/03/10 09:59:54;;;;;;;1.48;0.45;;;19.30;58.80;;;;;;5091294;28;20063;-69
2023/03/10 10:02:25;;;;;;;1.90;0.75;;;19.30;58.90;;;;;;5103686;28;20330;-62
2023/03/10 10:04:55;;;;;;;1.63;1.10;;;19.30;59.00;;;;;;5107552;28;20047;-62
2023/03/10 10:07:25;;;;;;;1.75;0.93;;;19.30;59.10;;;;;;5091220;28;20062;-62
2023/03/10 10:10:03;;;;;;;1.42;1.00;;;19.30;59.20;;;;;;5088554;28;20096;-63
2023/03/10 10:17:15;;;;;;;1.25;0.80;;;19.30;59.20;;;;;;5082563;28;20048;-64
2023/03/10 10:19:45;;;;;;;3.83;1.20;;;19.30;59.10;;;;;;5065836;28;20443;-63
2023/03/10 10:22:21;;;;;;;1.33;0.88;;;19.30;58.90;;;;;;5056802;28;20060;-64
2023/03/10 10:25:10;;;;;;;2.63;0.50;;;19.30;59.00;;;;;;5050234;28;20044;-63
2023/03/10 10:27:38;;;;;;;3.55;1.35;;;19.30;58.90;;;;;;5046123;28;20102;-65
2023/03/10 10:30:27;;;;;;;1.30;0.40;;;19.40;58.90;;;;;;5067430;28;20051;-65
2023/03/10 10:32:59;;;;;;;4.78;0.60;;;19.50;58.90;;;;;;5044805;28;20412;-63
2023/03/10 10:35:28;;;;;;;2.40;0.98;;;19.50;58.90;;;;;;5048577;28;20048;-61
2023/03/10 10:38:04;;;;;;;2.28;0.70;;;19.50;58.80;;;;;;5050588;28;20051;-64
2023/03/10 10:40:35;;;;;;;1.23;0.70;;;19.60;58.80;;;;;;5056563;28;20060;-62
2023/03/10 10:43:04;;;;;;;1.55;1.00;;;19.60;58.70;;;;;;5045594;28;20159;-61
2023/03/10 10:45:35;;;;;;;;;;;19.70;58.60;;;;;;5065390;28;20048;-64
2023/03/10 10:48:03;;;;;;;4.07;0.43;;;19.70;58.70;;;;;;5059294;28;19927;-66
2023/03/10 10:50:31;;;;;;;1.40;0.82;;;19.70;58.50;;;;;;5066839;28;20113;-63
2023/03/10 10:53:19;;;;;;;1.10;0.75;;;19.70;58.50;;;;;;5044727;28;20098;-64
2023/03/10 10:55:57;;;;;;;;;;;19.70;58.60;;;;;;5050789;28;20044;-64
2023/03/10 10:58:29;;;;;;;3.92;1.20;;;19.70;58.70;;;;;;5068532;28;19939;-67
2023/03/10 11:00:59;;;;;;;3.20;0.47;;;19.70;58.60;;;;;;5065559;28;20139;-65
2023/03/10 11:03:29;;;;;;;3.42;1.13;;;19.70;58.80;;;;;;5050091;28;20054;-62
2023/03/10 11:05:56;;;;;;;2.35;0.90;;;19.70;58.80;;;;;;5069186;28;20051;-62
2023/03/10 11:08:33;;;;;;;4.47;0.85;;;19.60;58.80;;;;;;5068294;28;20049;-63
2023/03/10 11:11:19;;;;;;;1.40;0.80;;;19.60;58.90;;;;;;5049725;28;20084;-63
2023/03/10 11:14:10;;;;;;;2.08;0.40;;;19.60;58.90;;;;;;5049643;28;20055;-63
2023/03/10 11:16:48;;;;;;;6.60;0.90;;;19.50;58.80;;;;;;5068115;28;20389;-64
2023/03/10 11:19:24;;;;;;;3.28;1.50;;;19.50;58.80;;;;;;5053933;28;20055;-67
2023/03/10 11:21:56;;;;;;;5.47;1.35;;;19.50;58.80;;;;;;5055271;28;20518;-67
2023/03/10 11:24:32;;;;;;;4.00;1.40;;;19.40;58.80;;;;;;5050187;28;20071;-67
2023/03/10 11:27:09;;;;;;;3.40;1.30;;;19.40;58.80;;;;;;5041041;28;20059;-67
2023/03/10 11:29:56;;;;;;;2.88;0.85;;;19.30;58.80;;;;;;5067930;28;20053;-68
2023/03/10 11:32:34;;;;;;;3.72;1.27;;;19.30;58.80;;;;;;5067930;28;20040;-68
2023/03/10 11:35:16;;;;;;;2.70;1.17;;;19.30;59.00;;;;;;5048497;28;20049;-68
2023/03/10 11:37:49;;;;;;;2.20;1.27;;;19.30;58.90;;;;;;5051207;28;20052;-68
2023/03/10 11:40:22;;;;;;;2.10;0.82;;;19.20;59.00;;;;;;5068584;28;20060;-65
2023/03/10 11:42:57;;;;;;;4.18;0.73;;;19.20;59.10;;;;;;5069089;28;20451;-64
2023/03/10 11:45:28;;;;;;;1.55;0.55;;;19.20;59.20;;;;;;5068547;28;20067;-65
2023/03/10 11:48:07;;;;;;;1.67;1.15;;;19.10;59.20;;;;;;5066321;28;20055;-65
2023/03/10 11:50:43;;;;;;;2.50;1.25;;;19.10;59.20;;;;;;5050878;28;20143;-65
2023/03/10 11:53:15;;;;;;;2.35;1.65;;;19.10;59.30;;;;;;5066664;28;20049;-64
2023/03/10 11:55:44;;;;;;;2.33;1.42;;;19.00;59.30;;;;;;5068196;28;20079;-66
2023/03/10 11:58:20;;;;;;;2.35;1.25;;;19.00;59.40;;;;;;5050438;28;20044;-66
2023/03/10 12:00:47;;;;;;;2.55;1.30;;;19.00;59.40;;;;;;5050468;28;20063;-67
2023/03/10 12:03:19;;;;;;;2.85;1.67;;;19.00;59.50;;;;;;5068261;28;20044;-67
2023/03/10 12:05:51;;;;;;;4.97;1.35;;;18.90;59.50;;;;;;5049867;28;20044;-67
2023/03/10 12:08:22;;;;;;;2.05;1.40;;;18.90;59.60;;;;;;5048013;28;20067;-68
2023/03/10 12:10:50;;;;;;;3.88;1.15;;;18.90;59.70;;;;;;5050074;28;20056;-71
2023/03/10 12:13:25;;;;;;;2.92;0.95;;;18.80;59.70;;;;;;5050626;28;20048;-69
2023/03/10 12:15:56;;;;;;;2.80;1.33;;;18.90;59.80;;;;;;5067733;28;20045;-63
2023/03/10 12:18:23;;;;;;;2.35;1.17;;;18.80;59.90;;;;;;5050385;28;20144;-62
2023/03/10 12:21:16;;;;;;;6.22;1.30;;;18.80;59.90;;;;;;5060567;28;20036;-62
2023/03/10 12:23:45;;;;;;;2.22;1.20;;;18.80;60.10;;;;;;5045437;28;20052;-62
2023/03/10 12:26:12;;;;;;;3.72;1.10;;;18.80;60.00;;;;;;5069305;28;20087;-62
2023/03/10 12:28:41;;;;;;;3.15;1.40;;;18.70;60.00;;;;;;5048144;28;20076;-62
2023/03/10 12:31:10;;;;;;;2.88;1.50;;;18.70;60.00;;;;;;5069940;28;20048;-62
2023/03/10 12:34:14;;;;;;;1.98;1.27;;;18.70;60.00;;;;;;5069567;28;20052;-62
2023/03/10 12:36:44;;;;;;;1.98;1.42;;;18.70;60.10;;;;;;5069205;28;20053;-62
2023/03/10 12:39:41;;;;;;;3.97;1.85;;;18.70;60.10;;;;;;5069516;28;20049;-62
2023/03/10 12:42:28;;;;;;;3.03;1.40;;;18.70;60.10;;;;;;4971430;28;20055;-62
2023/03/10 12:45:15;;;;;;;2.03;0.70;;;18.60;60.00;;;;;;5061483;28;20266;-62
2023/03/10 12:47:55;;;;;;;1.55;0.63;;;18.60;60.10;;;;;;5069618;28;20048;-62
2023/03/10 12:50:42;;;;;;;3.70;1.55;;;18.60;60.10;;;;;;5051667;28;20209;-62
2023/03/10 12:53:31;;;;;;;3.83;1.23;;;18.60;60.10;;;;;;5039800;28;20049;-62
2023/03/10 12:56:31;;;;;;;4.63;1.30;;;18.50;60.10;;;;;;5055101;28;20063;-62
2023/03/10 12:59:05;;;;;;;2.22;1.13;;;18.50;60.10;;;;;;5051496;28;20055;-62
2023/03/10 13:01:40;;;;;;;2.78;1.17;;;18.50;60.10;;;;;;5051351;28;20052;-62
2023/03/10 13:04:08;;;;;;;3.08;1.23;;;18.50;60.20;;;;;;5051221;28;20469;-62
2023/03/10 13:06:38;;;;;;;2.35;1.40;;;18.50;60.20;;;;;;5051030;28;20056;-62
2023/03/10 13:09:18;;;;;;;7.57;1.80;;;18.50;60.20;;;;;;5069124;28;20485;-62